createdAt,value
2023-05-10T00:01:00.472Z,26.63
2023-05-10T00:03:27.907Z,26.27
2023-05-10T00:05:55.648Z,21.88
2023-05-10T00:08:36.863Z,26.23
2023-05-10T00:11:09.118Z,25.67
2023-05-10T00:13:39.087Z,25.27
2023-05-10T00:16:09.544Z,27.77
2023-05-10T00:18:36.463Z,25.30
2023-05-10T00:21:03.304Z,24.88
2023-05-10T00:23:30.421Z,23.45
2023-05-10T00:26:10.086Z,24.02
2023-05-10T00:28:38.263Z,24.45
2023-05-10T00:31:08.293Z,22.77
2023-05-10T00:33:35.153Z,23.75
2023-05-10T00:36:02.443Z,21.90
2023-05-10T00:38:29.444Z,22.77
2023-05-10T00:41:04.510Z,21.17
2023-05-10T00:43:37.198Z,22.45
2023-05-10T00:46:07.539Z,20.75
2023-05-10T00:48:35.089Z,20.40
2023-05-10T00:51:08.911Z,20.48
2023-05-10T00:53:36.361Z,20.00
2023-05-10T00:56:04.542Z,19.45
2023-05-10T00:58:32.206Z,21.40
2023-05-10T01:00:59.619Z,19.77
2023-05-10T01:03:26.688Z,20.67
2023-05-10T01:05:53.515Z,20.27
2023-05-10T01:08:21.324Z,20.98
2023-05-10T01:10:50.158Z,20.30
2023-05-10T01:13:31.730Z,20.95
2023-05-10T01:15:58.866Z,19.85
2023-05-10T01:18:25.968Z,20.08
2023-05-10T01:21:00.253Z,20.45
2023-05-10T01:23:30.151Z,20.33
2023-05-10T01:26:25.709Z,20.13
2023-05-10T01:29:08.911Z,20.42
2023-05-10T01:31:54.731Z,21.52
2023-05-10T01:34:26.609Z,20.25
2023-05-10T01:36:59.658Z,21.55
2023-05-10T01:39:33.255Z,21.67
2023-05-10T01:42:06.159Z,21.77
2023-05-10T01:44:52.392Z,23.27
2023-05-10T01:49:48.880Z,22.85
2023-05-10T01:52:18.432Z,25.33
2023-05-10T01:55:05.961Z,23.20
2023-05-10T01:57:37.113Z,21.42
2023-05-10T02:00:05.656Z,22.77
2023-05-10T02:02:44.264Z,21.73
2023-05-10T02:05:13.134Z,21.83
2023-05-10T02:07:40.442Z,21.42
2023-05-10T02:10:09.483Z,23.08
2023-05-10T02:12:37.509Z,20.48
2023-05-10T02:15:07.105Z,22.60
2023-05-10T02:17:35.413Z,23.52
2023-05-10T02:20:06.235Z,21.35
2023-05-10T02:22:34.072Z,20.13
2023-05-10T02:25:02.394Z,20.83
2023-05-10T02:27:30.532Z,20.48
2023-05-10T02:29:59.250Z,20.63
2023-05-10T02:32:27.421Z,22.17
2023-05-10T02:34:55.466Z,22.58
2023-05-10T02:37:22.898Z,22.15
2023-05-10T02:39:54.943Z,21.27
2023-05-10T02:42:25.295Z,20.73
2023-05-10T02:44:57.176Z,22.48
2023-05-10T02:47:23.999Z,20.50
2023-05-10T02:49:51.036Z,20.70
2023-05-10T02:52:28.657Z,21.13
2023-05-10T02:54:56.532Z,20.80
2023-05-10T02:57:26.375Z,20.83
2023-05-10T02:59:53.437Z,19.60
2023-05-10T03:02:21.573Z,22.77
2023-05-10T03:04:48.716Z,21.90
2023-05-10T03:07:15.898Z,21.63
2023-05-10T03:09:43.292Z,22.08
2023-05-10T03:12:16.675Z,22.45
2023-05-10T03:14:51.374Z,23.70
2023-05-10T03:17:31.849Z,22.45
2023-05-10T03:20:03.895Z,22.15
2023-05-10T03:22:45.967Z,23.17
2023-05-10T03:25:14.332Z,22.63
2023-05-10T03:27:43.859Z,22.33
2023-05-10T03:30:12.382Z,22.92
2023-05-10T03:32:39.380Z,22.67
2023-05-10T03:35:14.271Z,24.08
2023-05-10T03:37:41.966Z,22.30
2023-05-10T03:40:09.557Z,24.30
2023-05-10T03:42:38.933Z,24.73
2023-05-10T03:45:06.987Z,24.63
2023-05-10T03:47:33.994Z,25.27
2023-05-10T03:50:00.998Z,24.90
2023-05-10T03:52:27.997Z,24.13
2023-05-10T03:54:55.812Z,24.95
2023-05-10T03:57:24.243Z,23.15
2023-05-10T03:59:51.188Z,24.00
2023-05-10T04:02:18.258Z,24.13
2023-05-10T04:04:45.263Z,23.17
2023-05-10T04:07:12.324Z,24.40
2023-05-10T04:09:39.160Z,24.17
2023-05-10T04:12:07.960Z,23.77
2023-05-10T04:14:35.739Z,25.15
2023-05-10T04:17:02.661Z,25.10
2023-05-10T04:19:30.592Z,26.58
2023-05-10T04:21:57.804Z,27.40
2023-05-10T04:24:25.060Z,26.20
2023-05-10T04:26:52.727Z,25.58
2023-05-10T04:29:25.212Z,24.73
2023-05-10T04:31:52.338Z,23.92
2023-05-10T04:34:19.736Z,25.13
2023-05-10T04:36:46.685Z,23.33
2023-05-10T04:39:15.400Z,23.88
2023-05-10T04:41:43.645Z,23.20
2023-05-10T04:44:10.725Z,23.15
2023-05-10T04:46:40.870Z,24.55
2023-05-10T04:49:08.925Z,26.00
2023-05-10T04:51:37.681Z,23.98
2023-05-10T04:54:07.773Z,26.40
2023-05-10T04:56:37.484Z,26.25
2023-05-10T04:59:04.381Z,28.80
2023-05-10T05:01:31.400Z,28.05
2023-05-10T05:03:58.483Z,27.05
2023-05-10T05:06:26.132Z,24.80
2023-05-10T05:08:53.002Z,26.27
2023-05-10T05:11:22.718Z,29.15
2023-05-10T05:13:49.936Z,28.42
2023-05-10T05:16:16.737Z,30.17
2023-05-10T05:18:44.108Z,31.00
2023-05-10T05:21:21.048Z,31.75
2023-05-10T05:23:48.358Z,29.98
2023-05-10T05:26:16.040Z,30.67
2023-05-10T05:28:43.395Z,31.48
2023-05-10T05:31:10.952Z,31.02
2023-05-10T05:33:38.171Z,31.60
2023-05-10T05:36:07.333Z,35.10
2023-05-10T05:38:34.583Z,32.35
2023-05-10T05:41:12.403Z,32.58
2023-05-10T05:43:39.296Z,31.10
2023-05-10T05:46:09.726Z,34.10
2023-05-10T05:48:36.795Z,34.33
2023-05-10T05:51:05.847Z,32.97
2023-05-10T05:53:34.432Z,34.10
2023-05-10T05:56:05.040Z,36.05
2023-05-10T05:58:35.304Z,35.83
2023-05-10T06:01:02.408Z,34.97
2023-05-10T06:03:29.375Z,35.88
2023-05-10T06:05:56.431Z,36.80
2023-05-10T06:08:23.521Z,31.60
2023-05-10T06:10:50.434Z,31.20
2023-05-10T06:13:17.690Z,32.47
2023-05-10T06:15:44.524Z,32.47
2023-05-10T06:18:11.802Z,29.15
2023-05-10T06:20:38.634Z,28.42
2023-05-10T06:23:05.462Z,28.98
2023-05-10T06:25:32.351Z,29.27
2023-05-10T06:27:59.428Z,28.30
2023-05-10T06:30:29.367Z,24.85
2023-05-10T06:32:56.864Z,25.85
2023-05-10T06:35:24.237Z,26.30
2023-05-10T06:37:51.468Z,24.70
2023-05-10T06:40:18.595Z,22.90
2023-05-10T06:42:46.497Z,22.55
2023-05-10T06:45:13.879Z,22.38
2023-05-10T06:47:41.476Z,22.70
2023-05-10T06:50:12.455Z,21.85
2023-05-10T06:52:40.128Z,23.25
2023-05-10T06:55:07.444Z,20.70
2023-05-10T06:57:34.389Z,21.00
2023-05-10T07:00:01.310Z,16.23
2023-05-10T07:02:28.340Z,13.93
2023-05-10T07:04:55.512Z,14.68
2023-05-10T07:07:22.552Z,13.93
2023-05-10T07:09:50.956Z,13.95
2023-05-10T07:12:18.068Z,12.27
2023-05-10T07:14:45.147Z,12.52
2023-05-10T07:17:12.150Z,13.10
2023-05-10T07:19:39.191Z,12.55
2023-05-10T07:22:06.233Z,12.38
2023-05-10T07:24:34.152Z,12.45
2023-05-10T07:27:01.120Z,12.07
2023-05-10T07:29:28.225Z,12.70
2023-05-10T07:31:57.924Z,13.18
2023-05-10T07:34:26.223Z,12.48
2023-05-10T07:36:53.329Z,11.70
2023-05-10T07:39:27.237Z,13.95
2023-05-10T07:41:55.287Z,13.93
2023-05-10T07:44:22.439Z,13.90
2023-05-10T07:46:49.806Z,15.40
2023-05-10T07:49:17.048Z,16.45
2023-05-10T07:51:46.320Z,17.38
2023-05-10T07:54:13.879Z,17.40
2023-05-10T07:56:48.115Z,19.23
2023-05-10T07:59:25.936Z,17.90
2023-05-10T08:01:52.932Z,18.55
2023-05-10T08:04:19.923Z,18.95
2023-05-10T08:06:46.899Z,16.88
2023-05-10T08:09:19.996Z,17.48
2023-05-10T08:11:46.894Z,20.23
2023-05-10T08:14:13.740Z,18.38
2023-05-10T08:16:44.397Z,18.50
2023-05-10T08:19:11.320Z,18.95
2023-05-10T08:21:38.656Z,17.90
2023-05-10T08:24:06.049Z,19.08
2023-05-10T08:26:37.874Z,20.77
2023-05-10T08:29:04.776Z,19.15
2023-05-10T08:31:31.782Z,18.52
2023-05-10T08:34:08.146Z,19.30
2023-05-10T08:36:44.557Z,17.58
2023-05-10T08:39:22.777Z,16.98
2023-05-10T08:41:55.352Z,16.10
2023-05-10T08:44:26.526Z,16.55
2023-05-10T08:46:54.738Z,16.35
2023-05-10T08:49:22.521Z,16.27
2023-05-10T08:51:52.724Z,15.10
2023-05-10T08:54:20.763Z,13.63
2023-05-10T08:56:49.707Z,14.15
2023-05-10T08:59:24.574Z,13.32
2023-05-10T09:01:52.182Z,12.88
2023-05-10T09:04:19.658Z,12.25
2023-05-10T09:06:46.781Z,11.65
2023-05-10T09:09:13.781Z,8.35
2023-05-10T09:11:40.887Z,8.85
2023-05-10T09:14:08.105Z,7.30
2023-05-10T09:16:41.506Z,6.70
2023-05-10T09:19:09.776Z,8.20
2023-05-10T09:21:40.753Z,7.80
2023-05-10T09:24:08.476Z,8.90
2023-05-10T09:26:36.953Z,9.43
2023-05-10T09:29:04.132Z,9.88
2023-05-10T09:31:47.856Z,10.38
2023-05-10T09:34:31.818Z,8.57
2023-05-10T09:37:01.795Z,7.40
2023-05-10T09:39:36.461Z,7.38
2023-05-10T09:42:05.007Z,9.02
2023-05-10T09:44:32.360Z,6.40
2023-05-10T09:46:59.921Z,6.32
2023-05-10T09:49:27.316Z,7.00
2023-05-10T09:52:01.102Z,6.75
2023-05-10T09:54:28.224Z,6.25
2023-05-10T09:56:55.006Z,9.30
2023-05-10T09:59:23.028Z,9.18
2023-05-10T10:01:53.472Z,9.32
2023-05-10T10:04:22.610Z,7.45
2023-05-10T10:06:59.956Z,8.25
2023-05-10T10:09:28.113Z,8.00
2023-05-10T10:11:55.246Z,8.60
2023-05-10T10:14:23.764Z,8.52
2023-05-10T10:17:05.844Z,9.15
2023-05-10T10:19:36.146Z,10.30
2023-05-10T10:22:03.930Z,11.05
2023-05-10T10:24:32.746Z,9.85
2023-05-10T10:27:18.350Z,9.60
2023-05-10T10:29:51.573Z,8.32
2023-05-10T10:32:26.850Z,7.55
2023-05-10T10:34:55.127Z,7.45
2023-05-10T10:37:21.921Z,7.53
2023-05-10T10:39:51.589Z,7.70
2023-05-10T10:42:38.950Z,7.45
2023-05-10T10:45:15.458Z,7.95
2023-05-10T10:47:44.269Z,7.25
2023-05-10T10:50:13.865Z,6.82
2023-05-10T10:52:41.696Z,7.25
2023-05-10T10:55:19.346Z,6.90
2023-05-10T10:58:01.720Z,7.72
2023-05-10T11:00:31.808Z,6.47
2023-05-10T11:03:05.495Z,6.57
2023-05-10T11:05:38.021Z,6.57
2023-05-10T11:08:12.493Z,5.95
2023-05-10T11:10:40.334Z,5.97
2023-05-10T11:13:07.921Z,6.47
2023-05-10T11:15:36.664Z,5.60
2023-05-10T11:18:24.434Z,5.45
2023-05-10T11:20:52.462Z,6.50
2023-05-10T11:23:20.266Z,6.93
2023-05-10T11:25:47.426Z,6.97
2023-05-10T11:28:14.451Z,6.63
2023-05-10T11:30:42.160Z,7.28
2023-05-10T11:33:09.953Z,6.88
2023-05-10T11:35:43.320Z,6.57
2023-05-10T11:38:11.301Z,6.28
2023-05-10T11:40:38.675Z,6.55
2023-05-10T11:43:06.732Z,6.82
2023-05-10T11:45:34.206Z,7.25
2023-05-10T11:48:01.369Z,7.50
2023-05-10T11:50:28.900Z,7.82
2023-05-10T11:52:56.892Z,8.55
2023-05-10T11:55:25.270Z,8.57
2023-05-10T11:57:55.611Z,9.63
2023-05-10T12:00:22.662Z,10.02
2023-05-10T12:02:50.320Z,10.25
2023-05-10T12:05:17.663Z,11.45
2023-05-10T12:07:44.879Z,10.95
2023-05-10T12:10:15.831Z,11.77
2023-05-10T12:12:44.491Z,12.93
2023-05-10T12:15:12.050Z,13.55
2023-05-10T12:17:42.684Z,14.50
2023-05-10T12:20:18.007Z,15.00
2023-05-10T12:22:45.882Z,15.70
2023-05-10T12:25:13.145Z,16.52
2023-05-10T12:27:40.273Z,15.90
2023-05-10T12:30:07.491Z,15.85
2023-05-10T12:32:48.136Z,15.82
2023-05-10T12:35:16.926Z,16.55
2023-05-10T12:37:44.634Z,15.27
2023-05-10T12:40:12.499Z,14.32
2023-05-10T12:42:40.852Z,13.40
2023-05-10T12:45:09.184Z,15.52
2023-05-10T12:47:36.235Z,15.40
2023-05-10T12:50:03.788Z,13.73
2023-05-10T12:52:32.639Z,13.90
2023-05-10T12:55:00.390Z,13.82
2023-05-10T12:57:28.818Z,12.48
2023-05-10T12:59:56.046Z,9.90
2023-05-10T13:02:24.083Z,10.60
2023-05-10T13:04:51.441Z,9.15
2023-05-10T13:07:18.478Z,8.40
2023-05-10T13:09:45.576Z,9.50
2023-05-10T13:12:12.414Z,8.70
2023-05-10T13:14:41.314Z,7.97
2023-05-10T13:17:08.448Z,8.95
2023-05-10T13:19:35.507Z,8.70
2023-05-10T13:22:02.372Z,8.98
2023-05-10T13:24:29.284Z,8.95
2023-05-10T13:26:56.299Z,8.00
2023-05-10T13:29:23.674Z,7.80
2023-05-10T13:31:51.365Z,7.65
2023-05-10T13:34:21.476Z,8.13
2023-05-10T13:36:49.886Z,7.13
2023-05-10T13:39:16.784Z,7.80
2023-05-10T13:41:45.494Z,7.95
2023-05-10T13:44:13.628Z,9.68
2023-05-10T13:46:44.704Z,10.70
2023-05-10T13:49:11.732Z,9.80
2023-05-10T13:51:39.226Z,10.32
2023-05-10T13:54:06.078Z,9.88
2023-05-10T13:56:32.892Z,8.93
2023-05-10T13:59:00.663Z,10.10
2023-05-10T14:01:31.539Z,9.52
2023-05-10T14:04:00.630Z,10.15
2023-05-10T14:06:28.480Z,10.30
2023-05-10T14:08:56.371Z,11.13
2023-05-10T14:11:24.866Z,11.68
2023-05-10T14:13:52.177Z,11.50
2023-05-10T14:16:19.220Z,11.70
2023-05-10T14:18:46.635Z,11.20
2023-05-10T14:21:13.602Z,10.45
2023-05-10T14:23:40.869Z,11.75
2023-05-10T14:26:09.078Z,11.30
2023-05-10T14:28:36.219Z,11.13
2023-05-10T14:31:03.748Z,11.93
2023-05-10T14:33:30.596Z,10.55
2023-05-10T14:35:58.362Z,11.77
2023-05-10T14:38:25.283Z,10.70
2023-05-10T14:40:52.427Z,8.68
2023-05-10T14:43:20.291Z,8.20
2023-05-10T14:45:48.706Z,7.78
2023-05-10T14:48:18.283Z,7.25
2023-05-10T14:50:46.432Z,7.25
2023-05-10T14:53:13.584Z,7.28
2023-05-10T14:55:40.591Z,7.85
2023-05-10T14:58:07.572Z,6.95
2023-05-10T15:00:35.828Z,8.00
2023-05-10T15:03:03.470Z,5.95
2023-05-10T15:05:33.862Z,6.95
2023-05-10T15:08:01.582Z,6.43
2023-05-10T15:10:28.722Z,6.43
2023-05-10T15:12:56.045Z,7.30
2023-05-10T15:15:24.092Z,7.07
2023-05-10T15:17:51.528Z,7.00
2023-05-10T15:20:18.582Z,7.68
2023-05-10T15:22:45.712Z,7.07
2023-05-10T15:25:14.210Z,6.97
2023-05-10T15:27:44.802Z,7.32
2023-05-10T15:30:11.898Z,7.10
2023-05-10T15:32:40.859Z,7.03
2023-05-10T15:35:09.670Z,7.70
2023-05-10T15:37:36.737Z,7.93
2023-05-10T15:40:05.092Z,7.75
2023-05-10T15:42:33.843Z,7.80
2023-05-10T15:45:00.771Z,7.25
2023-05-10T15:47:30.965Z,7.82
2023-05-10T15:49:58.874Z,7.22
2023-05-10T15:52:25.881Z,7.53
2023-05-10T15:54:52.968Z,6.90
2023-05-10T15:57:20.245Z,7.20
2023-05-10T15:59:47.984Z,6.22
2023-05-10T16:02:16.182Z,6.80
2023-05-10T16:04:44.477Z,6.30
2023-05-10T16:07:12.581Z,6.35
2023-05-10T16:09:40.003Z,6.55
2023-05-10T16:12:06.830Z,6.80
2023-05-10T16:14:34.219Z,5.80
2023-05-10T16:17:01.465Z,5.03
2023-05-10T16:19:29.788Z,4.80
2023-05-10T16:21:57.415Z,5.03
2023-05-10T16:24:25.014Z,4.63
2023-05-10T16:26:52.610Z,4.72
2023-05-10T16:29:21.295Z,5.72
2023-05-10T16:31:48.765Z,5.22
2023-05-10T16:34:16.502Z,6.22
2023-05-10T16:36:44.395Z,6.18
2023-05-10T16:39:12.388Z,5.90
2023-05-10T16:41:39.722Z,6.03
2023-05-10T16:44:07.189Z,4.85
2023-05-10T16:46:34.712Z,5.55
2023-05-10T16:49:02.951Z,5.85
2023-05-10T16:51:30.082Z,5.20
2023-05-10T16:53:57.791Z,5.15
2023-05-10T16:56:25.599Z,5.47
2023-05-10T16:58:54.049Z,5.80
2023-05-10T17:01:23.208Z,6.22
2023-05-10T17:03:52.900Z,6.20
2023-05-10T17:06:19.888Z,6.10
2023-05-10T17:08:47.014Z,5.80
2023-05-10T17:11:13.905Z,5.93
2023-05-10T17:13:40.842Z,6.70
2023-05-10T17:16:08.807Z,6.25
2023-05-10T17:18:37.301Z,6.40
2023-05-10T17:21:04.658Z,6.60
2023-05-10T17:23:35.364Z,6.45
2023-05-10T17:26:04.052Z,5.88
2023-05-10T17:28:31.176Z,6.43
2023-05-10T17:30:58.517Z,6.22
2023-05-10T17:33:26.084Z,5.97
2023-05-10T17:35:52.977Z,6.30
2023-05-10T17:38:19.828Z,6.00
2023-05-10T17:40:46.718Z,5.88
2023-05-10T17:43:13.486Z,5.65
2023-05-10T17:45:40.626Z,6.13
2023-05-10T17:48:08.042Z,5.78
2023-05-10T17:50:35.439Z,5.30
2023-05-10T17:53:03.003Z,5.65
2023-05-10T17:55:30.865Z,5.63
2023-05-10T17:57:59.688Z,5.53
2023-05-10T18:00:26.868Z,6.20
2023-05-10T18:02:53.907Z,6.72
2023-05-10T18:05:21.347Z,7.38
2023-05-10T18:07:48.640Z,7.15
2023-05-10T18:10:15.531Z,8.10
2023-05-10T18:12:42.551Z,8.27
2023-05-10T18:15:09.864Z,8.05
2023-05-10T18:17:36.918Z,9.02
2023-05-10T18:20:04.127Z,8.75
2023-05-10T18:22:31.032Z,9.40
2023-05-10T18:24:57.898Z,9.32
2023-05-10T18:27:25.100Z,8.57
2023-05-10T18:29:52.255Z,8.52
2023-05-10T18:32:19.146Z,9.15
2023-05-10T18:34:45.977Z,8.55
2023-05-10T18:37:13.732Z,9.02
2023-05-10T18:39:40.987Z,7.82
2023-05-10T18:42:08.741Z,8.73
2023-05-10T18:44:35.684Z,8.10
2023-05-10T18:47:02.584Z,8.80
2023-05-10T18:49:29.676Z,8.05
2023-05-10T18:51:57.049Z,8.93
2023-05-10T18:54:24.090Z,8.18
2023-05-10T18:56:51.014Z,8.00
2023-05-10T18:59:30.830Z,7.78
2023-05-10T19:01:58.868Z,7.18
2023-05-10T19:04:26.048Z,6.75
2023-05-10T19:06:53.037Z,5.88
2023-05-10T19:09:21.378Z,6.13
2023-05-10T19:11:51.963Z,6.07
2023-05-10T19:14:23.089Z,6.50
2023-05-10T19:16:53.079Z,6.78
2023-05-10T19:19:24.211Z,6.50
2023-05-10T19:21:51.994Z,6.75
2023-05-10T19:24:29.675Z,7.63
2023-05-10T19:26:57.864Z,6.57
2023-05-10T19:29:27.279Z,5.68
2023-05-10T19:31:54.606Z,6.65
2023-05-10T19:34:23.839Z,7.78
2023-05-10T19:36:51.503Z,7.25
2023-05-10T19:39:22.666Z,7.63
2023-05-10T19:41:50.663Z,8.45
2023-05-10T19:44:28.091Z,7.97
2023-05-10T19:46:55.337Z,8.30
2023-05-10T19:49:22.446Z,8.88
2023-05-10T19:51:49.673Z,8.23
2023-05-10T19:54:19.422Z,8.57
2023-05-10T19:56:49.982Z,8.38
2023-05-10T19:59:18.169Z,8.40
2023-05-10T20:01:47.857Z,8.00
2023-05-10T20:04:14.802Z,9.18
2023-05-10T20:06:45.162Z,8.23
2023-05-10T20:09:12.337Z,9.13
2023-05-10T20:11:40.379Z,9.45
2023-05-10T20:14:07.564Z,8.45
2023-05-10T20:16:34.602Z,9.73
2023-05-10T20:19:01.787Z,9.52
2023-05-10T20:21:28.876Z,9.93
2023-05-10T20:23:55.885Z,8.90
2023-05-10T20:26:27.161Z,9.73
2023-05-10T20:28:56.558Z,9.20
2023-05-10T20:31:26.716Z,9.90
2023-05-10T20:33:55.157Z,9.75
2023-05-10T20:36:22.315Z,9.75
2023-05-10T20:38:50.855Z,9.30
2023-05-10T20:41:18.276Z,9.45
2023-05-10T20:43:45.047Z,10.32
2023-05-10T20:46:12.477Z,10.20
2023-05-10T20:48:39.451Z,9.70
2023-05-10T20:51:09.410Z,10.35
2023-05-10T20:53:37.154Z,10.40
2023-05-10T20:56:04.092Z,10.30
2023-05-10T20:58:31.014Z,11.10
2023-05-10T21:00:57.729Z,10.90
2023-05-10T21:03:24.646Z,10.82
2023-05-10T21:05:51.430Z,11.15
2023-05-10T21:08:18.284Z,12.02
2023-05-10T21:10:45.716Z,11.50
2023-05-10T21:13:12.862Z,12.10
2023-05-10T21:15:39.730Z,11.30
2023-05-10T21:18:06.624Z,11.75
2023-05-10T21:20:33.747Z,11.75
2023-05-10T21:23:00.692Z,11.15
2023-05-10T21:25:27.639Z,11.57
2023-05-10T21:27:55.191Z,11.65
2023-05-10T21:30:25.874Z,11.85
2023-05-10T21:32:55.227Z,12.90
2023-05-10T21:35:31.598Z,10.63
2023-05-10T21:37:58.733Z,11.57
2023-05-10T21:40:26.209Z,11.48
2023-05-10T21:42:53.196Z,11.13
2023-05-10T21:45:20.073Z,11.90
2023-05-10T21:47:47.546Z,12.15
2023-05-10T21:50:14.750Z,12.23
2023-05-10T21:52:44.510Z,11.80
2023-05-10T21:55:11.505Z,13.85
2023-05-10T21:57:38.428Z,12.95
2023-05-10T22:00:07.387Z,13.48
2023-05-10T22:02:34.652Z,14.13
2023-05-10T22:05:03.594Z,14.30
2023-05-10T22:07:32.025Z,13.05
2023-05-10T22:09:59.281Z,12.38
2023-05-10T22:12:26.252Z,14.18
2023-05-10T22:14:59.619Z,14.35
2023-05-10T22:17:37.913Z,15.15
2023-05-10T22:20:06.751Z,13.95
2023-05-10T22:22:33.568Z,14.57
2023-05-10T22:25:00.650Z,13.32
2023-05-10T22:27:27.438Z,13.38
2023-05-10T22:29:54.289Z,12.93
2023-05-10T22:32:21.257Z,15.10
2023-05-10T22:34:48.242Z,15.02
2023-05-10T22:37:17.955Z,14.73
2023-05-10T22:39:52.370Z,14.00
2023-05-10T22:42:22.041Z,14.90
2023-05-10T22:44:48.822Z,15.18
2023-05-10T22:47:16.546Z,15.20
2023-05-10T22:49:43.484Z,14.55
2023-05-10T22:52:10.331Z,15.60
2023-05-10T22:54:37.217Z,14.48
2023-05-10T22:57:04.083Z,15.20
2023-05-10T22:59:30.983Z,15.30
2023-05-10T23:01:57.864Z,14.30
2023-05-10T23:04:24.959Z,15.35
2023-05-10T23:06:51.963Z,14.43
2023-05-10T23:09:19.942Z,15.80
2023-05-10T23:11:49.985Z,15.18
2023-05-10T23:14:19.668Z,15.13
2023-05-10T23:16:48.122Z,15.07
2023-05-10T23:19:14.873Z,15.40
2023-05-10T23:21:42.178Z,14.70
2023-05-10T23:24:12.408Z,15.20
2023-05-10T23:26:39.635Z,14.75
2023-05-10T23:29:06.736Z,14.88
2023-05-10T23:31:34.051Z,15.98
2023-05-10T23:34:00.840Z,15.55
2023-05-10T23:36:28.069Z,16.35
2023-05-10T23:38:54.899Z,15.15
2023-05-10T23:41:40.430Z,15.60
2023-05-10T23:44:24.749Z,16.20
2023-05-10T23:46:51.742Z,15.30
2023-05-10T23:49:18.730Z,16.10
2023-05-10T23:51:49.583Z,15.93
2023-05-10T23:54:20.115Z,15.52
2023-05-10T23:56:52.711Z,15.48
2023-05-10T23:59:25.974Z,15.15
